createdAt,value
2022-11-18T00:01:32.714Z,95.81
2022-11-18T00:04:01.194Z,96.00
2022-11-18T00:06:31.097Z,96.33
2022-11-18T00:09:01.383Z,96.87
2022-11-18T00:11:48.056Z,97.10
2022-11-18T00:14:20.924Z,97.29
2022-11-18T00:16:53.052Z,97.17
2022-11-18T00:19:23.648Z,97.35
2022-11-18T00:21:52.007Z,96.83
2022-11-18T00:24:20.552Z,97.45
2022-11-18T00:26:49.342Z,97.17
2022-11-18T00:29:19.469Z,97.23
2022-11-18T00:31:48.804Z,97.26
2022-11-18T00:34:19.133Z,97.33
2022-11-18T00:36:48.472Z,97.65
2022-11-18T00:39:20.192Z,97.56
2022-11-18T00:42:06.996Z,97.65
2022-11-18T00:44:36.932Z,97.68
2022-11-18T00:47:05.468Z,97.99
2022-11-18T00:49:33.813Z,98.53
2022-11-18T00:52:02.248Z,98.95
2022-11-18T00:54:30.632Z,98.83
2022-11-18T00:56:59.027Z,99.42
2022-11-18T00:59:27.400Z,99.18
2022-11-18T01:01:56.960Z,99.11
2022-11-18T01:04:25.208Z,99.63
2022-11-18T01:06:53.687Z,99.69
2022-11-18T01:09:22.062Z,99.44
2022-11-18T01:12:13.179Z,100.00
2022-11-18T01:14:41.511Z,100.00
2022-11-18T01:17:11.236Z,100.00
2022-11-18T01:19:39.505Z,100.00
2022-11-18T01:22:07.907Z,100.00
2022-11-18T01:24:36.426Z,100.00
2022-11-18T01:27:05.041Z,100.00
2022-11-18T01:29:33.302Z,100.00
2022-11-18T01:32:23.321Z,100.00
2022-11-18T01:34:51.078Z,100.00
2022-11-18T01:37:19.327Z,100.00
2022-11-18T01:39:47.501Z,100.00
2022-11-18T01:42:18.135Z,100.00
2022-11-18T01:45:05.206Z,100.00
2022-11-18T01:47:38.234Z,100.00
2022-11-18T01:50:09.139Z,100.00
2022-11-18T01:52:38.274Z,100.00
2022-11-18T01:55:13.234Z,100.00
2022-11-18T01:57:42.872Z,100.00
2022-11-18T02:00:13.280Z,100.00
2022-11-18T02:02:41.567Z,99.91
2022-11-18T02:05:12.654Z,99.91
2022-11-18T02:07:44.497Z,99.20
2022-11-18T02:10:21.678Z,98.90
2022-11-18T02:12:51.579Z,98.48
2022-11-18T02:15:28.052Z,98.17
2022-11-18T02:18:05.419Z,98.08
2022-11-18T02:20:37.683Z,97.83
2022-11-18T02:23:47.297Z,97.97
2022-11-18T02:27:03.991Z,97.90
2022-11-18T02:29:40.516Z,97.75
2022-11-18T02:32:15.530Z,97.78
2022-11-18T02:34:51.789Z,97.92
2022-11-18T02:37:28.588Z,97.80
2022-11-18T02:40:03.328Z,98.29
2022-11-18T02:42:34.334Z,98.43
2022-11-18T02:45:09.657Z,98.11
2022-11-18T02:47:39.325Z,98.59
2022-11-18T02:50:12.332Z,98.54
2022-11-18T02:52:41.877Z,98.37
2022-11-18T02:55:13.983Z,98.31
2022-11-18T02:57:45.072Z,98.29
2022-11-18T03:00:16.728Z,98.21
2022-11-18T03:02:47.518Z,98.17
2022-11-18T03:05:22.135Z,98.86
2022-11-18T03:07:56.386Z,98.73
2022-11-18T03:10:31.385Z,99.00
2022-11-18T03:13:07.730Z,98.84
2022-11-18T03:15:47.495Z,98.94
2022-11-18T03:18:23.826Z,99.25
2022-11-18T03:20:58.573Z,99.46
2022-11-18T03:23:33.608Z,99.09
2022-11-18T03:26:06.413Z,99.14
2022-11-18T03:28:39.911Z,99.10
2022-11-18T03:31:15.914Z,98.81
2022-11-18T03:33:50.656Z,98.49
2022-11-18T03:36:23.156Z,98.30
2022-11-18T03:38:56.650Z,98.07
2022-11-18T03:41:27.623Z,97.78
2022-11-18T03:44:00.663Z,97.67
2022-11-18T03:46:38.093Z,97.30
2022-11-18T03:49:09.387Z,97.31
2022-11-18T03:51:43.001Z,97.23
2022-11-18T03:54:15.956Z,97.04
2022-11-18T03:56:49.086Z,96.53
2022-11-18T03:59:23.716Z,96.34
2022-11-18T04:01:58.186Z,95.91
2022-11-18T04:04:27.754Z,96.45
2022-11-18T04:07:04.960Z,96.65
2022-11-18T04:09:42.895Z,96.66
2022-11-18T04:12:16.201Z,97.05
2022-11-18T04:14:46.569Z,97.54
2022-11-18T04:17:18.692Z,97.65
2022-11-18T04:19:47.208Z,97.80
2022-11-18T04:22:16.262Z,97.64
2022-11-18T04:24:44.494Z,97.11
2022-11-18T04:27:13.255Z,97.18
2022-11-18T04:29:41.588Z,96.70
2022-11-18T04:32:10.028Z,96.48
2022-11-18T04:34:39.686Z,96.54
2022-11-18T04:37:07.931Z,96.48
2022-11-18T04:39:36.180Z,96.99
2022-11-18T04:42:04.495Z,96.50
2022-11-18T04:44:34.989Z,96.84
2022-11-18T04:47:06.572Z,96.74
2022-11-18T04:49:35.782Z,96.58
2022-11-18T04:52:06.451Z,96.48
2022-11-18T04:54:34.554Z,95.64
2022-11-18T04:57:02.790Z,95.61
2022-11-18T04:59:31.647Z,95.38
2022-11-18T05:02:01.013Z,95.39
2022-11-18T05:04:32.349Z,95.32
2022-11-18T05:07:02.378Z,95.71
2022-11-18T05:09:32.589Z,95.92
2022-11-18T05:12:19.030Z,96.31
2022-11-18T05:14:50.469Z,96.22
2022-11-18T05:17:20.138Z,96.39
2022-11-18T05:19:48.468Z,96.79
2022-11-18T05:22:17.231Z,96.79
2022-11-18T05:24:47.223Z,96.32
2022-11-18T05:27:15.771Z,96.26
2022-11-18T05:29:44.154Z,96.13
2022-11-18T05:32:12.743Z,96.23
2022-11-18T05:34:41.507Z,96.89
2022-11-18T05:37:10.220Z,96.62
2022-11-18T05:39:38.444Z,96.63
2022-11-18T05:42:25.990Z,97.05
2022-11-18T05:44:58.219Z,97.94
2022-11-18T05:47:27.329Z,97.87
2022-11-18T05:49:55.534Z,98.05
2022-11-18T05:52:23.807Z,98.13
2022-11-18T05:54:52.776Z,98.34
2022-11-18T05:57:22.497Z,98.24
2022-11-18T05:59:50.786Z,98.08
2022-11-18T06:02:23.921Z,97.60
2022-11-18T06:04:58.527Z,97.92
2022-11-18T06:07:31.694Z,97.80
2022-11-18T06:10:05.796Z,97.66
2022-11-18T06:12:40.712Z,97.66
2022-11-18T06:15:17.500Z,97.78
2022-11-18T06:17:50.529Z,97.60
2022-11-18T06:20:20.826Z,97.64
2022-11-18T06:22:52.554Z,97.71
2022-11-18T06:25:20.911Z,97.48
2022-11-18T06:27:52.568Z,97.19
2022-11-18T06:30:21.065Z,97.40
2022-11-18T06:32:49.287Z,97.58
2022-11-18T06:35:17.882Z,97.35
2022-11-18T06:37:47.392Z,97.82
2022-11-18T06:40:15.796Z,97.60
2022-11-18T06:43:01.697Z,97.73
2022-11-18T06:45:31.709Z,97.51
2022-11-18T06:48:01.052Z,97.76
2022-11-18T06:50:29.455Z,97.43
2022-11-18T06:52:57.746Z,97.75
2022-11-18T06:55:26.219Z,97.65
2022-11-18T06:57:56.930Z,97.23
2022-11-18T07:00:25.006Z,97.46
2022-11-18T07:02:54.533Z,97.51
2022-11-18T07:05:22.815Z,97.12
2022-11-18T07:07:51.061Z,97.08
2022-11-18T07:10:19.555Z,97.29
2022-11-18T07:12:47.795Z,97.57
2022-11-18T07:15:16.179Z,97.89
2022-11-18T07:17:44.404Z,97.67
2022-11-18T07:20:14.359Z,97.62
2022-11-18T07:22:42.638Z,97.66
2022-11-18T07:25:11.427Z,97.96
2022-11-18T07:27:39.702Z,97.93
2022-11-18T07:30:09.398Z,97.93
2022-11-18T07:32:37.724Z,97.68
2022-11-18T07:35:07.150Z,97.57
2022-11-18T07:37:36.801Z,98.00
2022-11-18T07:40:06.026Z,97.87
2022-11-18T07:42:42.748Z,97.83
2022-11-18T07:45:24.623Z,98.21
2022-11-18T07:47:53.223Z,98.29
2022-11-18T07:50:21.447Z,98.34
2022-11-18T07:52:51.078Z,98.26
2022-11-18T07:55:19.372Z,98.13
2022-11-18T07:57:47.580Z,97.84
2022-11-18T08:00:16.916Z,97.97
2022-11-18T08:02:45.095Z,97.83
2022-11-18T08:05:17.756Z,97.76
2022-11-18T08:07:46.543Z,97.63
2022-11-18T08:10:17.004Z,97.59
2022-11-18T08:12:45.212Z,97.21
2022-11-18T08:15:13.477Z,96.79
2022-11-18T08:17:41.725Z,96.51
2022-11-18T08:20:11.693Z,96.18
2022-11-18T08:22:39.992Z,96.34
2022-11-18T08:25:09.629Z,96.55
2022-11-18T08:27:39.268Z,96.41
2022-11-18T08:30:09.382Z,96.28
2022-11-18T08:32:37.675Z,96.46
2022-11-18T08:35:10.975Z,96.13
2022-11-18T08:37:39.787Z,96.17
2022-11-18T08:40:09.655Z,96.37
2022-11-18T08:42:39.294Z,96.15
2022-11-18T08:45:09.453Z,96.02
2022-11-18T08:47:38.459Z,96.62
2022-11-18T08:50:09.553Z,96.70
2022-11-18T08:52:38.184Z,96.83
2022-11-18T08:55:07.206Z,96.62
2022-11-18T08:57:35.541Z,96.93
2022-11-18T09:00:06.989Z,97.04
2022-11-18T09:02:35.298Z,97.31
2022-11-18T09:05:03.603Z,97.57
2022-11-18T09:07:31.928Z,97.44
2022-11-18T09:10:00.424Z,97.47
2022-11-18T09:12:28.784Z,97.61
2022-11-18T09:15:14.123Z,97.74
2022-11-18T09:17:44.716Z,97.42
2022-11-18T09:20:13.068Z,97.60
2022-11-18T09:22:41.399Z,97.60
2022-11-18T09:25:11.157Z,97.82
2022-11-18T09:27:39.435Z,97.95
2022-11-18T09:30:09.419Z,97.91
2022-11-18T09:32:37.744Z,98.19
2022-11-18T09:35:07.691Z,98.20
2022-11-18T09:37:36.000Z,97.88
2022-11-18T09:40:04.961Z,98.17
2022-11-18T09:42:54.875Z,97.93
2022-11-18T09:45:26.367Z,98.05
2022-11-18T09:47:59.506Z,98.27
2022-11-18T09:53:21.510Z,98.08
2022-11-18T09:55:51.713Z,98.07
2022-11-18T09:58:28.291Z,98.12
2022-11-18T10:00:56.509Z,98.18
2022-11-18T10:03:29.210Z,98.07
2022-11-18T10:06:07.070Z,97.88
2022-11-18T10:08:42.369Z,97.61
2022-11-18T10:11:18.125Z,97.21
2022-11-18T10:13:58.965Z,96.81
2022-11-18T10:16:37.216Z,96.26
2022-11-18T10:19:22.024Z,96.18
2022-11-18T10:22:07.218Z,96.09
2022-11-18T10:24:44.480Z,95.71
2022-11-18T10:27:16.026Z,95.40
2022-11-18T10:29:46.513Z,95.29
2022-11-18T10:32:17.144Z,95.68
2022-11-18T10:34:51.561Z,95.92
2022-11-18T10:37:52.935Z,95.66
2022-11-18T10:40:27.688Z,95.53
2022-11-18T10:42:56.151Z,95.21
2022-11-18T10:45:28.868Z,94.72
2022-11-18T10:48:04.650Z,94.99
2022-11-18T10:50:35.703Z,94.65
2022-11-18T10:53:06.983Z,94.67
2022-11-18T10:55:35.293Z,94.86
2022-11-18T10:58:11.444Z,95.15
2022-11-18T11:00:48.767Z,95.42
2022-11-18T11:03:38.770Z,95.34
2022-11-18T11:06:24.642Z,95.42
2022-11-18T11:08:56.593Z,95.19
2022-11-18T11:11:29.978Z,95.62
2022-11-18T11:14:08.053Z,95.70
2022-11-18T11:16:44.805Z,96.07
2022-11-18T11:19:14.277Z,95.88
2022-11-18T11:21:42.561Z,96.23
2022-11-18T11:24:13.976Z,96.37
2022-11-18T11:30:09.541Z,96.38
2022-11-18T11:33:21.428Z,96.79
2022-11-18T11:36:03.720Z,96.73
2022-11-18T11:38:47.161Z,96.68
2022-11-18T11:41:24.223Z,96.40
2022-11-18T11:44:18.529Z,96.13
2022-11-18T11:47:18.910Z,95.40
2022-11-18T11:49:55.100Z,95.24
2022-11-18T11:52:35.949Z,94.75
2022-11-18T11:55:15.892Z,94.95
2022-11-18T11:57:59.727Z,95.15
2022-11-18T12:00:28.886Z,95.14
2022-11-18T12:03:16.507Z,95.02
2022-11-18T12:05:44.879Z,95.24
2022-11-18T12:08:18.398Z,95.63
2022-11-18T12:10:51.816Z,95.32
2022-11-18T12:13:38.959Z,95.42
2022-11-18T12:16:24.892Z,95.32
2022-11-18T12:18:59.575Z,95.26
2022-11-18T12:21:58.315Z,95.56
2022-11-18T12:24:38.393Z,96.37
2022-11-18T12:27:14.290Z,96.59
2022-11-18T12:29:56.180Z,97.03
2022-11-18T12:32:42.451Z,97.41
2022-11-18T12:35:29.944Z,97.74
2022-11-18T12:38:03.423Z,97.93
2022-11-18T12:40:44.804Z,98.22
2022-11-18T12:44:05.918Z,99.19
2022-11-18T12:46:53.978Z,99.94
2022-11-18T12:50:15.119Z,100.00
2022-11-18T12:52:56.085Z,100.00
2022-11-18T12:55:32.177Z,100.00
2022-11-18T12:58:00.900Z,100.00
2022-11-18T13:00:52.164Z,100.00
2022-11-18T13:03:30.472Z,100.00
2022-11-18T13:06:16.443Z,100.00
2022-11-18T13:08:44.850Z,100.00
2022-11-18T13:11:50.450Z,100.00
2022-11-18T13:14:41.210Z,100.00
2022-11-18T13:17:47.569Z,100.00
2022-11-18T13:20:31.183Z,100.00
2022-11-18T13:23:21.097Z,100.00
2022-11-18T13:25:50.992Z,100.00
2022-11-18T13:28:30.703Z,100.00
2022-11-18T13:31:07.764Z,100.00
2022-11-18T13:33:38.202Z,100.00
2022-11-18T13:36:18.752Z,100.00
2022-11-18T13:38:57.498Z,99.68
2022-11-18T13:41:32.688Z,99.47
2022-11-18T13:44:13.682Z,99.56
2022-11-18T13:46:43.159Z,99.20
2022-11-18T13:49:18.404Z,99.21
2022-11-18T13:51:48.786Z,99.08
2022-11-18T13:54:26.883Z,98.60
2022-11-18T13:56:55.835Z,98.75
2022-11-18T13:59:26.166Z,98.38
2022-11-18T14:01:57.458Z,98.12
2022-11-18T14:04:28.630Z,97.94
2022-11-18T14:07:23.339Z,97.71
2022-11-18T14:09:56.550Z,97.73
2022-11-18T14:12:28.888Z,97.72
2022-11-18T14:15:17.278Z,97.78
2022-11-18T14:17:54.491Z,98.11
2022-11-18T14:20:23.671Z,98.21
2022-11-18T14:22:59.750Z,97.89
2022-11-18T14:25:33.065Z,97.45
2022-11-18T14:28:14.694Z,97.57
2022-11-18T14:30:44.223Z,97.19
2022-11-18T14:33:16.316Z,97.10
2022-11-18T14:35:49.160Z,96.79
2022-11-18T14:38:47.653Z,96.73
2022-11-18T14:41:13.416Z,96.49
2022-11-18T14:43:42.856Z,96.55
2022-11-18T14:46:17.326Z,96.25
2022-11-18T14:48:46.387Z,95.90
2022-11-18T14:51:16.740Z,96.06
2022-11-18T14:53:46.526Z,96.01
2022-11-18T14:56:21.313Z,95.65
2022-11-18T14:58:49.549Z,95.56
2022-11-18T15:01:17.805Z,95.82
2022-11-18T15:03:46.113Z,95.75
2022-11-18T15:06:15.942Z,95.94
2022-11-18T15:08:48.633Z,96.03
2022-11-18T15:11:19.105Z,95.97
2022-11-18T15:13:47.657Z,95.88
2022-11-18T15:16:19.513Z,95.83
2022-11-18T15:18:51.070Z,95.89
2022-11-18T15:21:19.877Z,95.90
2022-11-18T15:23:49.589Z,95.68
2022-11-18T15:26:22.087Z,96.36
2022-11-18T15:28:52.283Z,96.22
2022-11-18T15:31:21.280Z,96.37
2022-11-18T15:33:51.044Z,96.31
2022-11-18T15:36:21.889Z,96.48
2022-11-18T15:38:52.766Z,96.66
2022-11-18T15:41:23.542Z,96.43
2022-11-18T15:43:51.835Z,96.39
2022-11-18T15:46:24.008Z,96.19
2022-11-18T15:48:53.810Z,96.20
2022-11-18T15:51:23.134Z,96.75
2022-11-18T15:53:52.717Z,96.91
2022-11-18T15:56:29.211Z,97.08
2022-11-18T15:58:59.735Z,97.15
2022-11-18T16:01:29.785Z,97.12
2022-11-18T16:03:58.721Z,97.36
2022-11-18T16:06:27.551Z,97.63
2022-11-18T16:09:00.193Z,98.11
2022-11-18T16:11:47.781Z,98.81
2022-11-18T16:14:19.447Z,99.90
2022-11-18T16:16:50.154Z,100.00
2022-11-18T16:19:20.445Z,100.00
2022-11-18T16:21:52.613Z,100.00
2022-11-18T16:24:25.649Z,100.00
2022-11-18T16:26:54.402Z,100.00
2022-11-18T16:29:23.788Z,100.00
2022-11-18T16:31:54.407Z,100.00
2022-11-18T16:34:27.166Z,100.00
2022-11-18T16:36:57.329Z,100.00
2022-11-18T16:39:28.999Z,100.00
2022-11-18T16:42:06.801Z,100.00
2022-11-18T16:44:36.838Z,100.00
2022-11-18T16:47:12.434Z,100.00
2022-11-18T16:49:43.409Z,100.00
2022-11-18T16:52:11.679Z,100.00
2022-11-18T16:54:45.275Z,100.00
2022-11-18T16:57:14.735Z,100.00
2022-11-18T16:59:43.019Z,100.00
2022-11-18T17:02:13.867Z,100.00
2022-11-18T17:04:42.631Z,100.00
2022-11-18T17:07:10.862Z,100.00
2022-11-18T17:09:40.981Z,100.00
2022-11-18T17:12:09.524Z,100.00
2022-11-18T17:14:38.518Z,100.00
2022-11-18T17:17:07.032Z,100.00
2022-11-18T17:19:35.275Z,100.00
2022-11-18T17:22:03.581Z,100.00
2022-11-18T17:24:31.975Z,100.00
2022-11-18T17:27:01.522Z,100.00
2022-11-18T17:29:29.925Z,100.00
2022-11-18T17:31:58.221Z,100.00
2022-11-18T17:34:26.438Z,100.00
2022-11-18T17:36:54.710Z,100.00
2022-11-18T17:39:22.945Z,100.00
2022-11-18T17:42:08.802Z,100.00
2022-11-18T17:44:38.500Z,100.00
2022-11-18T17:47:06.766Z,100.00
2022-11-18T17:49:35.077Z,100.00
2022-11-18T17:52:03.641Z,100.00
2022-11-18T17:54:31.904Z,100.00
2022-11-18T17:57:00.177Z,100.00
2022-11-18T17:59:28.579Z,100.00
2022-11-18T18:01:59.848Z,100.00
2022-11-18T18:04:28.630Z,100.00
2022-11-18T18:06:56.921Z,100.00
2022-11-18T18:09:30.444Z,100.00
2022-11-18T18:12:00.830Z,100.00
2022-11-18T18:14:28.157Z,100.00
2022-11-18T18:16:57.802Z,100.00
2022-11-18T18:19:26.116Z,100.00
2022-11-18T18:21:54.339Z,100.00
2022-11-18T18:24:23.307Z,100.00
2022-11-18T18:26:51.749Z,100.00
2022-11-18T18:29:20.149Z,100.00
2022-11-18T18:31:48.460Z,100.00
2022-11-18T18:34:18.540Z,100.00
2022-11-18T18:36:47.178Z,100.00
2022-11-18T18:39:15.421Z,100.00
2022-11-18T18:41:43.687Z,100.00
2022-11-18T18:44:18.093Z,100.00
2022-11-18T18:46:45.873Z,99.95
2022-11-18T18:49:20.467Z,99.83
2022-11-18T18:51:50.254Z,99.54
2022-11-18T18:54:20.670Z,99.45
2022-11-18T18:56:49.215Z,98.74
2022-11-18T18:59:17.598Z,98.62
2022-11-18T19:01:46.006Z,98.45
2022-11-18T19:04:16.455Z,98.25
2022-11-18T19:07:04.385Z,98.11
2022-11-18T19:09:36.171Z,98.00
2022-11-18T19:12:23.225Z,97.79
2022-11-18T19:14:51.614Z,97.68
2022-11-18T19:17:19.899Z,97.48
2022-11-18T19:20:05.984Z,97.11
2022-11-18T19:22:36.968Z,96.71
2022-11-18T19:25:06.203Z,96.68
2022-11-18T19:27:38.638Z,97.06
2022-11-18T19:30:08.790Z,96.72
2022-11-18T19:32:37.525Z,97.06
2022-11-18T19:35:08.613Z,96.91
2022-11-18T19:37:38.617Z,97.04
2022-11-18T19:40:10.292Z,97.28
2022-11-18T19:42:39.550Z,97.70
2022-11-18T19:45:09.338Z,97.58
2022-11-18T19:47:38.499Z,97.58
2022-11-18T19:50:08.430Z,97.77
2022-11-18T19:52:38.072Z,98.26
2022-11-18T19:55:07.950Z,98.72
2022-11-18T19:57:36.274Z,98.41
2022-11-18T20:00:05.368Z,98.35
2022-11-18T20:02:39.350Z,98.38
2022-11-18T20:05:26.315Z,98.35
2022-11-18T20:07:57.356Z,98.31
2022-11-18T20:10:25.621Z,98.42
2022-11-18T20:12:53.942Z,98.62
2022-11-18T20:15:22.492Z,98.42
2022-11-18T20:17:50.709Z,98.51
2022-11-18T20:20:19.127Z,98.63
2022-11-18T20:22:47.335Z,98.19
2022-11-18T20:25:17.235Z,98.48
2022-11-18T20:27:45.583Z,98.07
2022-11-18T20:30:14.479Z,98.44
2022-11-18T20:32:42.740Z,98.78
2022-11-18T20:35:11.191Z,98.35
2022-11-18T20:37:39.574Z,98.43
2022-11-18T20:40:09.247Z,98.42
2022-11-18T20:42:56.728Z,98.09
2022-11-18T20:45:25.057Z,97.73
2022-11-18T20:47:53.334Z,97.95
2022-11-18T20:50:21.800Z,100.00
2022-11-18T20:52:50.105Z,100.00
2022-11-18T20:55:18.396Z,100.00
2022-11-18T20:57:48.141Z,100.00
2022-11-18T21:00:17.576Z,100.00
2022-11-18T21:02:45.801Z,100.00
2022-11-18T21:05:14.142Z,100.00
2022-11-18T21:07:42.429Z,100.00
2022-11-18T21:10:10.869Z,100.00
2022-11-18T21:12:59.732Z,100.00
2022-11-18T21:15:28.394Z,100.00
2022-11-18T21:17:56.617Z,100.00
2022-11-18T21:20:42.547Z,100.00
2022-11-18T21:23:10.814Z,100.00
2022-11-18T21:25:39.983Z,100.00
2022-11-18T21:28:08.448Z,100.00
2022-11-18T21:30:38.515Z,100.00
2022-11-18T21:33:07.029Z,100.00
2022-11-18T21:35:35.815Z,100.00
2022-11-18T21:38:05.070Z,100.00
2022-11-18T21:40:33.391Z,100.00
2022-11-18T21:43:02.211Z,100.00
2022-11-18T21:45:30.473Z,100.00
2022-11-18T21:48:00.190Z,100.00
2022-11-18T21:50:28.594Z,100.00
2022-11-18T21:52:56.882Z,100.00
2022-11-18T21:55:25.189Z,100.00
2022-11-18T21:57:53.452Z,100.00
2022-11-18T22:00:21.959Z,100.00
2022-11-18T22:02:50.186Z,100.00
2022-11-18T22:05:19.849Z,100.00
2022-11-18T22:07:48.077Z,100.00
2022-11-18T22:10:18.345Z,100.00
2022-11-18T22:12:48.677Z,100.00
2022-11-18T22:15:17.111Z,100.00
2022-11-18T22:17:45.851Z,100.00
2022-11-18T22:20:14.480Z,100.00
2022-11-18T22:22:44.223Z,100.00
2022-11-18T22:25:13.108Z,100.00
2022-11-18T22:27:41.474Z,100.00
2022-11-18T22:30:11.218Z,100.00
2022-11-18T22:32:39.450Z,100.00
2022-11-18T22:35:09.622Z,100.00
2022-11-18T22:37:38.004Z,100.00
2022-11-18T22:40:09.738Z,100.00
2022-11-18T22:42:49.146Z,100.00
2022-11-18T22:45:17.792Z,100.00
2022-11-18T22:47:46.041Z,100.00
2022-11-18T22:50:14.303Z,100.00
2022-11-18T22:52:42.621Z,100.00
2022-11-18T22:55:14.166Z,100.00
2022-11-18T22:57:44.178Z,100.00
2022-11-18T23:00:14.563Z,100.00
2022-11-18T23:02:42.821Z,100.00
2022-11-18T23:05:11.798Z,100.00
2022-11-18T23:07:40.149Z,100.00
2022-11-18T23:10:09.104Z,100.00
2022-11-18T23:12:56.096Z,100.00
2022-11-18T23:15:24.366Z,100.00
2022-11-18T23:17:52.541Z,100.00
2022-11-18T23:20:20.837Z,100.00
2022-11-18T23:22:49.058Z,100.00
2022-11-18T23:25:17.504Z,100.00
2022-11-18T23:27:51.589Z,100.00
2022-11-18T23:30:22.222Z,100.00
2022-11-18T23:32:50.511Z,100.00
2022-11-18T23:35:18.770Z,100.00
2022-11-18T23:37:47.039Z,100.00
2022-11-18T23:40:16.414Z,100.00
2022-11-18T23:42:46.021Z,100.00
2022-11-18T23:45:14.379Z,100.00
2022-11-18T23:47:42.606Z,100.00
2022-11-18T23:50:11.489Z,100.00
2022-11-18T23:52:41.701Z,100.00
2022-11-18T23:55:10.779Z,100.00
2022-11-18T23:57:39.121Z,100.00
